Terminal Aerodrome Forecast
Issued by NWS

Home | Current Version | Previous Version | Text Only | Print | Product List | Glossary On
Versions: 1 2 3 4 5 6 7 8 9 10 11 12 13
960
FTPA31 PHFO 291140
TAFHOG
TAF
PHOG 291140Z 2912/3012 08008G18KT P6SM FEW060
     FM292000 06016G24KT P6SM FEW035 SCT060
     FM300800 06010G20KT P6SM VCSH SCT030 BKN050=

USA.gov is the U.S. government's official web portal to all federal, state and local government web resources and services.